sensor_id;sensor_type;location;lat;lon;timestamp;P1;durP1;ratioP1;P2;durP2;ratioP2
66607;SDS011;53462;39.616;8.824;2023-11-21T00:01:41;2.30;;;1.40;;
66607;SDS011;53462;39.616;8.824;2023-11-21T00:04:08;2.85;;;1.48;;
66607;SDS011;53462;39.616;8.824;2023-11-21T00:06:34;2.78;;;1.55;;
66607;SDS011;53462;39.616;8.824;2023-11-21T00:09:00;1.98;;;1.42;;
66607;SDS011;53462;39.616;8.824;2023-11-21T00:11:26;3.20;;;1.77;;
66607;SDS011;53462;39.616;8.824;2023-11-21T00:13:52;3.33;;;1.60;;
66607;SDS011;53462;39.616;8.824;2023-11-21T00:16:18;2.08;;;1.50;;
66607;SDS011;53462;39.616;8.824;2023-11-21T00:18:44;2.30;;;1.50;;
66607;SDS011;53462;39.616;8.824;2023-11-21T00:21:11;2.03;;;1.42;;
66607;SDS011;53462;39.616;8.824;2023-11-21T00:23:37;2.45;;;1.50;;
66607;SDS011;53462;39.616;8.824;2023-11-21T00:26:04;3.90;;;1.50;;
66607;SDS011;53462;39.616;8.824;2023-11-21T00:28:30;4.47;;;1.77;;
66607;SDS011;53462;39.616;8.824;2023-11-21T00:30:55;3.58;;;1.63;;
66607;SDS011;53462;39.616;8.824;2023-11-21T00:33:21;4.00;;;1.67;;
66607;SDS011;53462;39.616;8.824;2023-11-21T00:35:47;4.07;;;1.60;;
66607;SDS011;53462;39.616;8.824;2023-11-21T00:38:13;5.45;;;1.65;;
66607;SDS011;53462;39.616;8.824;2023-11-21T00:40:39;5.30;;;1.65;;
66607;SDS011;53462;39.616;8.824;2023-11-21T00:43:05;3.03;;;1.60;;
66607;SDS011;53462;39.616;8.824;2023-11-21T00:45:30;5.15;;;1.70;;
66607;SDS011;53462;39.616;8.824;2023-11-21T00:47:56;5.95;;;2.00;;
66607;SDS011;53462;39.616;8.824;2023-11-21T00:50:23;3.15;;;1.52;;
66607;SDS011;53462;39.616;8.824;2023-11-21T00:52:49;2.58;;;1.55;;
66607;SDS011;53462;39.616;8.824;2023-11-21T00:55:17;3.72;;;1.80;;
66607;SDS011;53462;39.616;8.824;2023-11-21T00:57:43;2.88;;;1.50;;
66607;SDS011;53462;39.616;8.824;2023-11-21T01:00:09;3.80;;;1.80;;
66607;SDS011;53462;39.616;8.824;2023-11-21T01:02:45;2.97;;;1.42;;
66607;SDS011;53462;39.616;8.824;2023-11-21T01:05:13;1.67;;;1.30;;
66607;SDS011;53462;39.616;8.824;2023-11-21T01:07:39;4.65;;;1.80;;
66607;SDS011;53462;39.616;8.824;2023-11-21T01:10:05;4.15;;;1.40;;
66607;SDS011;53462;39.616;8.824;2023-11-21T01:12:36;3.10;;;1.60;;
66607;SDS011;53462;39.616;8.824;2023-11-21T01:15:03;4.95;;;1.90;;
66607;SDS011;53462;39.616;8.824;2023-11-21T01:17:32;3.33;;;1.70;;
66607;SDS011;53462;39.616;8.824;2023-11-21T01:19:59;5.28;;;1.80;;
66607;SDS011;53462;39.616;8.824;2023-11-21T01:22:26;3.58;;;1.75;;
66607;SDS011;53462;39.616;8.824;2023-11-21T01:24:53;7.53;;;2.20;;
66607;SDS011;53462;39.616;8.824;2023-11-21T01:27:19;6.53;;;2.10;;
66607;SDS011;53462;39.616;8.824;2023-11-21T01:29:45;6.65;;;2.00;;
66607;SDS011;53462;39.616;8.824;2023-11-21T01:32:11;3.95;;;2.13;;
66607;SDS011;53462;39.616;8.824;2023-11-21T01:34:37;5.82;;;1.85;;
66607;SDS011;53462;39.616;8.824;2023-11-21T01:37:02;6.53;;;1.90;;
66607;SDS011;53462;39.616;8.824;2023-11-21T01:39:30;2.70;;;1.70;;
66607;SDS011;53462;39.616;8.824;2023-11-21T01:41:57;3.30;;;1.83;;
66607;SDS011;53462;39.616;8.824;2023-11-21T01:44:26;4.70;;;1.77;;
66607;SDS011;53462;39.616;8.824;2023-11-21T01:46:52;4.45;;;2.00;;
66607;SDS011;53462;39.616;8.824;2023-11-21T01:49:19;4.32;;;1.75;;
66607;SDS011;53462;39.616;8.824;2023-11-21T01:51:46;2.92;;;1.80;;
66607;SDS011;53462;39.616;8.824;2023-11-21T01:54:15;4.35;;;1.90;;
66607;SDS011;53462;39.616;8.824;2023-11-21T01:56:43;3.17;;;1.73;;
66607;SDS011;53462;39.616;8.824;2023-11-21T01:59:14;4.82;;;2.08;;
66607;SDS011;53462;39.616;8.824;2023-11-21T02:01:45;3.63;;;1.73;;
66607;SDS011;53462;39.616;8.824;2023-11-21T02:04:12;3.33;;;1.73;;
66607;SDS011;53462;39.616;8.824;2023-11-21T02:06:38;3.08;;;1.95;;
66607;SDS011;53462;39.616;8.824;2023-11-21T02:09:04;3.58;;;1.80;;
66607;SDS011;53462;39.616;8.824;2023-11-21T02:11:30;3.13;;;1.90;;
66607;SDS011;53462;39.616;8.824;2023-11-21T02:14:00;5.45;;;2.10;;
66607;SDS011;53462;39.616;8.824;2023-11-21T02:16:26;2.88;;;1.63;;
66607;SDS011;53462;39.616;8.824;2023-11-21T02:18:55;2.83;;;1.80;;
66607;SDS011;53462;39.616;8.824;2023-11-21T02:21:22;2.60;;;1.83;;
66607;SDS011;53462;39.616;8.824;2023-11-21T02:23:50;3.17;;;2.00;;
66607;SDS011;53462;39.616;8.824;2023-11-21T02:26:16;5.13;;;2.13;;
66607;SDS011;53462;39.616;8.824;2023-11-21T02:28:42;6.43;;;1.90;;
66607;SDS011;53462;39.616;8.824;2023-11-21T02:31:08;4.43;;;1.95;;
66607;SDS011;53462;39.616;8.824;2023-11-21T02:33:34;5.60;;;1.75;;
66607;SDS011;53462;39.616;8.824;2023-11-21T02:36:00;2.97;;;1.88;;
66607;SDS011;53462;39.616;8.824;2023-11-21T02:38:27;3.92;;;1.70;;
66607;SDS011;53462;39.616;8.824;2023-11-21T02:40:53;3.35;;;1.77;;
66607;SDS011;53462;39.616;8.824;2023-11-21T02:43:19;3.22;;;1.77;;
66607;SDS011;53462;39.616;8.824;2023-11-21T02:45:44;3.97;;;2.33;;
66607;SDS011;53462;39.616;8.824;2023-11-21T02:48:11;5.28;;;2.20;;
66607;SDS011;53462;39.616;8.824;2023-11-21T02:50:37;12.82;;;3.63;;
66607;SDS011;53462;39.616;8.824;2023-11-21T02:53:03;10.45;;;4.30;;
66607;SDS011;53462;39.616;8.824;2023-11-21T02:55:32;11.57;;;4.20;;
66607;SDS011;53462;39.616;8.824;2023-11-21T02:58:00;9.95;;;3.17;;
66607;SDS011;53462;39.616;8.824;2023-11-21T03:00:26;5.93;;;2.10;;
66607;SDS011;53462;39.616;8.824;2023-11-21T03:02:54;5.63;;;2.28;;
66607;SDS011;53462;39.616;8.824;2023-11-21T03:05:20;4.95;;;2.13;;
66607;SDS011;53462;39.616;8.824;2023-11-21T03:07:46;5.00;;;2.30;;
66607;SDS011;53462;39.616;8.824;2023-11-21T03:10:12;5.45;;;2.40;;
66607;SDS011;53462;39.616;8.824;2023-11-21T03:12:39;6.00;;;2.28;;
66607;SDS011;53462;39.616;8.824;2023-11-21T03:15:06;5.43;;;2.60;;
66607;SDS011;53462;39.616;8.824;2023-11-21T03:17:32;5.82;;;2.53;;
66607;SDS011;53462;39.616;8.824;2023-11-21T03:20:02;4.70;;;2.35;;
66607;SDS011;53462;39.616;8.824;2023-11-21T03:22:29;4.85;;;2.65;;
66607;SDS011;53462;39.616;8.824;2023-11-21T03:24:55;3.78;;;1.90;;
66607;SDS011;53462;39.616;8.824;2023-11-21T03:27:21;3.28;;;1.90;;
66607;SDS011;53462;39.616;8.824;2023-11-21T03:29:47;4.82;;;2.00;;
66607;SDS011;53462;39.616;8.824;2023-11-21T03:32:15;3.67;;;2.17;;
66607;SDS011;53462;39.616;8.824;2023-11-21T03:34:54;3.17;;;2.00;;
66607;SDS011;53462;39.616;8.824;2023-11-21T03:37:24;2.95;;;2.03;;
66607;SDS011;53462;39.616;8.824;2023-11-21T03:39:50;5.95;;;2.08;;
66607;SDS011;53462;39.616;8.824;2023-11-21T03:42:16;4.07;;;1.88;;
66607;SDS011;53462;39.616;8.824;2023-11-21T03:44:42;3.97;;;1.73;;
66607;SDS011;53462;39.616;8.824;2023-11-21T03:47:08;3.15;;;2.00;;
66607;SDS011;53462;39.616;8.824;2023-11-21T03:49:34;3.95;;;1.83;;
66607;SDS011;53462;39.616;8.824;2023-11-21T03:52:00;3.67;;;1.90;;
66607;SDS011;53462;39.616;8.824;2023-11-21T03:54:26;3.22;;;1.63;;
66607;SDS011;53462;39.616;8.824;2023-11-21T03:56:52;3.33;;;1.80;;
66607;SDS011;53462;39.616;8.824;2023-11-21T03:59:17;2.95;;;2.28;;
66607;SDS011;53462;39.616;8.824;2023-11-21T04:01:43;2.83;;;1.67;;
66607;SDS011;53462;39.616;8.824;2023-11-21T04:04:09;4.40;;;1.90;;
66607;SDS011;53462;39.616;8.824;2023-11-21T04:06:35;5.32;;;1.83;;
66607;SDS011;53462;39.616;8.824;2023-11-21T04:09:02;3.15;;;1.80;;
66607;SDS011;53462;39.616;8.824;2023-11-21T04:11:29;3.45;;;1.65;;
66607;SDS011;53462;39.616;8.824;2023-11-21T04:13:55;2.40;;;1.75;;
66607;SDS011;53462;39.616;8.824;2023-11-21T04:16:21;3.28;;;1.67;;
66607;SDS011;53462;39.616;8.824;2023-11-21T04:18:47;3.30;;;1.55;;
66607;SDS011;53462;39.616;8.824;2023-11-21T04:21:13;3.92;;;1.52;;
66607;SDS011;53462;39.616;8.824;2023-11-21T04:23:39;4.25;;;2.13;;
66607;SDS011;53462;39.616;8.824;2023-11-21T04:26:05;3.60;;;1.90;;
66607;SDS011;53462;39.616;8.824;2023-11-21T04:28:31;3.25;;;1.75;;
66607;SDS011;53462;39.616;8.824;2023-11-21T04:30:57;4.18;;;1.73;;
66607;SDS011;53462;39.616;8.824;2023-11-21T04:33:23;3.80;;;1.92;;
66607;SDS011;53462;39.616;8.824;2023-11-21T04:35:50;2.38;;;1.65;;
66607;SDS011;53462;39.616;8.824;2023-11-21T04:38:16;3.90;;;1.90;;
66607;SDS011;53462;39.616;8.824;2023-11-21T04:40:44;6.55;;;1.75;;
66607;SDS011;53462;39.616;8.824;2023-11-21T04:43:10;2.78;;;1.73;;
66607;SDS011;53462;39.616;8.824;2023-11-21T04:45:35;4.53;;;2.00;;
66607;SDS011;53462;39.616;8.824;2023-11-21T04:48:01;3.85;;;1.80;;
66607;SDS011;53462;39.616;8.824;2023-11-21T04:50:27;4.35;;;1.90;;
66607;SDS011;53462;39.616;8.824;2023-11-21T04:52:53;3.20;;;1.80;;
66607;SDS011;53462;39.616;8.824;2023-11-21T04:55:19;3.92;;;1.95;;
66607;SDS011;53462;39.616;8.824;2023-11-21T04:57:45;3.58;;;2.25;;
66607;SDS011;53462;39.616;8.824;2023-11-21T05:00:12;3.17;;;2.20;;
66607;SDS011;53462;39.616;8.824;2023-11-21T05:02:39;3.17;;;2.05;;
66607;SDS011;53462;39.616;8.824;2023-11-21T05:05:06;4.80;;;2.30;;
66607;SDS011;53462;39.616;8.824;2023-11-21T05:07:33;3.33;;;2.30;;
66607;SDS011;53462;39.616;8.824;2023-11-21T05:10:00;3.88;;;2.20;;
66607;SDS011;53462;39.616;8.824;2023-11-21T05:12:30;2.83;;;2.15;;
66607;SDS011;53462;39.616;8.824;2023-11-21T05:15:03;5.47;;;2.15;;
66607;SDS011;53462;39.616;8.824;2023-11-21T05:17:39;3.30;;;2.17;;
66607;SDS011;53462;39.616;8.824;2023-11-21T05:20:15;4.75;;;2.13;;
66607;SDS011;53462;39.616;8.824;2023-11-21T05:22:47;4.35;;;2.20;;
66607;SDS011;53462;39.616;8.824;2023-11-21T05:25:15;3.58;;;2.30;;
66607;SDS011;53462;39.616;8.824;2023-11-21T05:27:48;3.08;;;2.00;;
66607;SDS011;53462;39.616;8.824;2023-11-21T05:30:14;4.20;;;2.25;;
66607;SDS011;53462;39.616;8.824;2023-11-21T05:32:40;3.97;;;2.25;;
66607;SDS011;53462;39.616;8.824;2023-11-21T05:35:09;5.25;;;2.47;;
66607;SDS011;53462;39.616;8.824;2023-11-21T05:37:40;3.42;;;2.10;;
66607;SDS011;53462;39.616;8.824;2023-11-21T05:40:09;7.63;;;2.40;;
66607;SDS011;53462;39.616;8.824;2023-11-21T05:42:36;4.07;;;2.22;;
66607;SDS011;53462;39.616;8.824;2023-11-21T05:45:03;6.55;;;2.40;;
66607;SDS011;53462;39.616;8.824;2023-11-21T05:47:36;3.28;;;2.20;;
66607;SDS011;53462;39.616;8.824;2023-11-21T05:50:04;5.32;;;2.53;;
66607;SDS011;53462;39.616;8.824;2023-11-21T05:52:31;5.95;;;2.58;;
66607;SDS011;53462;39.616;8.824;2023-11-21T05:54:57;5.32;;;2.70;;
66607;SDS011;53462;39.616;8.824;2023-11-21T05:57:23;6.30;;;2.33;;
66607;SDS011;53462;39.616;8.824;2023-11-21T05:59:49;4.07;;;2.38;;
66607;SDS011;53462;39.616;8.824;2023-11-21T06:02:16;4.15;;;2.47;;
66607;SDS011;53462;39.616;8.824;2023-11-21T06:04:42;4.57;;;2.28;;
66607;SDS011;53462;39.616;8.824;2023-11-21T06:07:07;5.70;;;2.60;;
66607;SDS011;53462;39.616;8.824;2023-11-21T06:09:34;3.53;;;2.65;;
66607;SDS011;53462;39.616;8.824;2023-11-21T06:12:00;7.45;;;2.75;;
66607;SDS011;53462;39.616;8.824;2023-11-21T06:14:26;7.35;;;2.88;;
66607;SDS011;53462;39.616;8.824;2023-11-21T06:16:52;6.03;;;2.75;;
66607;SDS011;53462;39.616;8.824;2023-11-21T06:19:18;4.35;;;2.42;;
66607;SDS011;53462;39.616;8.824;2023-11-21T06:21:47;6.50;;;3.00;;
66607;SDS011;53462;39.616;8.824;2023-11-21T06:24:13;6.53;;;3.13;;
66607;SDS011;53462;39.616;8.824;2023-11-21T06:26:40;5.45;;;2.70;;
66607;SDS011;53462;39.616;8.824;2023-11-21T06:29:06;7.65;;;3.00;;
66607;SDS011;53462;39.616;8.824;2023-11-21T06:31:32;7.88;;;3.08;;
66607;SDS011;53462;39.616;8.824;2023-11-21T06:33:58;8.88;;;3.38;;
66607;SDS011;53462;39.616;8.824;2023-11-21T06:36:25;5.38;;;3.25;;
66607;SDS011;53462;39.616;8.824;2023-11-21T06:38:52;7.18;;;3.38;;
66607;SDS011;53462;39.616;8.824;2023-11-21T06:41:17;7.00;;;3.13;;
66607;SDS011;53462;39.616;8.824;2023-11-21T06:43:43;6.38;;;3.25;;
66607;SDS011;53462;39.616;8.824;2023-11-21T06:46:12;5.53;;;2.85;;
66607;SDS011;53462;39.616;8.824;2023-11-21T06:48:44;6.35;;;2.97;;
66607;SDS011;53462;39.616;8.824;2023-11-21T06:51:10;7.05;;;3.00;;
66607;SDS011;53462;39.616;8.824;2023-11-21T06:53:36;5.60;;;3.03;;
66607;SDS011;53462;39.616;8.824;2023-11-21T06:56:02;5.38;;;2.92;;
66607;SDS011;53462;39.616;8.824;2023-11-21T06:58:29;6.85;;;3.10;;
66607;SDS011;53462;39.616;8.824;2023-11-21T07:00:54;8.00;;;3.25;;
66607;SDS011;53462;39.616;8.824;2023-11-21T07:03:20;5.15;;;2.38;;
66607;SDS011;53462;39.616;8.824;2023-11-21T07:05:46;5.93;;;3.22;;
66607;SDS011;53462;39.616;8.824;2023-11-21T07:08:12;3.92;;;2.47;;
66607;SDS011;53462;39.616;8.824;2023-11-21T07:10:38;4.10;;;2.15;;
66607;SDS011;53462;39.616;8.824;2023-11-21T07:13:04;4.95;;;2.00;;
66607;SDS011;53462;39.616;8.824;2023-11-21T07:15:30;4.07;;;2.03;;
66607;SDS011;53462;39.616;8.824;2023-11-21T07:17:56;5.47;;;2.03;;
66607;SDS011;53462;39.616;8.824;2023-11-21T07:20:22;5.18;;;2.17;;
66607;SDS011;53462;39.616;8.824;2023-11-21T07:22:48;3.95;;;1.92;;
66607;SDS011;53462;39.616;8.824;2023-11-21T07:25:14;7.93;;;2.65;;
66607;SDS011;53462;39.616;8.824;2023-11-21T07:27:40;3.25;;;1.80;;
66607;SDS011;53462;39.616;8.824;2023-11-21T07:30:06;4.82;;;1.92;;
66607;SDS011;53462;39.616;8.824;2023-11-21T07:32:35;5.70;;;2.13;;
66607;SDS011;53462;39.616;8.824;2023-11-21T07:35:00;5.90;;;2.03;;
66607;SDS011;53462;39.616;8.824;2023-11-21T07:37:26;5.60;;;2.05;;
66607;SDS011;53462;39.616;8.824;2023-11-21T07:39:55;8.50;;;2.55;;
66607;SDS011;53462;39.616;8.824;2023-11-21T07:42:24;5.05;;;2.15;;
66607;SDS011;53462;39.616;8.824;2023-11-21T07:44:51;5.03;;;2.17;;
66607;SDS011;53462;39.616;8.824;2023-11-21T07:47:17;6.75;;;2.10;;
66607;SDS011;53462;39.616;8.824;2023-11-21T07:49:43;7.75;;;2.28;;
66607;SDS011;53462;39.616;8.824;2023-11-21T07:52:10;6.60;;;2.22;;
66607;SDS011;53462;39.616;8.824;2023-11-21T07:54:36;5.57;;;2.50;;
66607;SDS011;53462;39.616;8.824;2023-11-21T07:57:02;6.15;;;2.60;;
66607;SDS011;53462;39.616;8.824;2023-11-21T07:59:29;6.18;;;1.80;;
66607;SDS011;53462;39.616;8.824;2023-11-21T08:01:55;8.73;;;2.30;;
66607;SDS011;53462;39.616;8.824;2023-11-21T08:04:21;8.48;;;1.90;;
66607;SDS011;53462;39.616;8.824;2023-11-21T08:06:47;5.00;;;2.08;;
66607;SDS011;53462;39.616;8.824;2023-11-21T08:09:14;3.47;;;1.25;;
66607;SDS011;53462;39.616;8.824;2023-11-21T08:11:42;4.88;;;1.70;;
66607;SDS011;53462;39.616;8.824;2023-11-21T08:14:08;5.65;;;1.55;;
66607;SDS011;53462;39.616;8.824;2023-11-21T08:16:34;9.82;;;2.03;;
66607;SDS011;53462;39.616;8.824;2023-11-21T08:19:00;9.20;;;1.83;;
66607;SDS011;53462;39.616;8.824;2023-11-21T08:21:26;8.75;;;2.10;;
66607;SDS011;53462;39.616;8.824;2023-11-21T08:23:54;10.13;;;1.63;;
66607;SDS011;53462;39.616;8.824;2023-11-21T08:26:21;5.93;;;2.05;;
66607;SDS011;53462;39.616;8.824;2023-11-21T08:28:47;5.65;;;1.70;;
66607;SDS011;53462;39.616;8.824;2023-11-21T08:31:13;5.57;;;1.65;;
66607;SDS011;53462;39.616;8.824;2023-11-21T08:33:39;8.80;;;1.83;;
66607;SDS011;53462;39.616;8.824;2023-11-21T08:36:08;8.13;;;2.00;;
66607;SDS011;53462;39.616;8.824;2023-11-21T08:38:36;7.68;;;1.90;;
66607;SDS011;53462;39.616;8.824;2023-11-21T08:41:06;10.00;;;2.40;;
66607;SDS011;53462;39.616;8.824;2023-11-21T08:43:36;6.70;;;1.80;;
66607;SDS011;53462;39.616;8.824;2023-11-21T08:46:05;10.07;;;1.85;;
66607;SDS011;53462;39.616;8.824;2023-11-21T08:48:31;9.70;;;1.95;;
66607;SDS011;53462;39.616;8.824;2023-11-21T08:50:57;11.23;;;2.15;;
66607;SDS011;53462;39.616;8.824;2023-11-21T08:53:23;4.72;;;1.85;;
66607;SDS011;53462;39.616;8.824;2023-11-21T08:55:51;8.05;;;1.70;;
66607;SDS011;53462;39.616;8.824;2023-11-21T08:58:19;5.22;;;1.90;;
66607;SDS011;53462;39.616;8.824;2023-11-21T09:00:45;11.68;;;2.10;;
66607;SDS011;53462;39.616;8.824;2023-11-21T09:03:11;5.70;;;2.10;;
66607;SDS011;53462;39.616;8.824;2023-11-21T09:05:38;7.53;;;2.42;;
66607;SDS011;53462;39.616;8.824;2023-11-21T09:08:05;8.63;;;2.83;;
66607;SDS011;53462;39.616;8.824;2023-11-21T09:10:32;10.77;;;2.67;;
66607;SDS011;53462;39.616;8.824;2023-11-21T09:13:03;8.48;;;2.55;;
66607;SDS011;53462;39.616;8.824;2023-11-21T09:15:28;6.78;;;2.88;;
66607;SDS011;53462;39.616;8.824;2023-11-21T09:17:55;7.22;;;2.22;;
66607;SDS011;53462;39.616;8.824;2023-11-21T09:20:21;10.77;;;2.88;;
66607;SDS011;53462;39.616;8.824;2023-11-21T09:22:48;10.05;;;2.85;;
66607;SDS011;53462;39.616;8.824;2023-11-21T09:25:14;10.60;;;3.10;;
66607;SDS011;53462;39.616;8.824;2023-11-21T09:27:41;13.05;;;3.45;;
66607;SDS011;53462;39.616;8.824;2023-11-21T09:30:07;12.35;;;3.42;;
66607;SDS011;53462;39.616;8.824;2023-11-21T09:32:37;11.48;;;3.00;;
66607;SDS011;53462;39.616;8.824;2023-11-21T09:35:04;8.02;;;3.00;;
66607;SDS011;53462;39.616;8.824;2023-11-21T09:37:31;7.30;;;2.70;;
66607;SDS011;53462;39.616;8.824;2023-11-21T09:39:57;11.63;;;2.42;;
66607;SDS011;53462;39.616;8.824;2023-11-21T09:42:23;9.40;;;2.72;;
66607;SDS011;53462;39.616;8.824;2023-11-21T09:47:46;11.82;;;2.80;;
66607;SDS011;53462;39.616;8.824;2023-11-21T09:50:13;6.43;;;2.15;;
66607;SDS011;53462;39.616;8.824;2023-11-21T09:52:47;7.47;;;2.42;;
66607;SDS011;53462;39.616;8.824;2023-11-21T09:55:27;10.32;;;3.92;;
66607;SDS011;53462;39.616;8.824;2023-11-21T09:58:01;10.57;;;2.55;;
66607;SDS011;53462;39.616;8.824;2023-11-21T10:00:28;10.98;;;2.83;;
66607;SDS011;53462;39.616;8.824;2023-11-21T10:02:58;9.65;;;3.15;;
66607;SDS011;53462;39.616;8.824;2023-11-21T10:05:24;9.15;;;2.08;;
66607;SDS011;53462;39.616;8.824;2023-11-21T10:07:51;15.68;;;5.22;;
66607;SDS011;53462;39.616;8.824;2023-11-21T10:10:18;8.25;;;2.92;;
66607;SDS011;53462;39.616;8.824;2023-11-21T10:13:06;10.90;;;3.88;;
66607;SDS011;53462;39.616;8.824;2023-11-21T10:15:35;8.02;;;2.30;;
66607;SDS011;53462;39.616;8.824;2023-11-21T10:18:02;9.05;;;2.20;;
66607;SDS011;53462;39.616;8.824;2023-11-21T10:20:28;8.80;;;2.97;;
66607;SDS011;53462;39.616;8.824;2023-11-21T10:22:55;11.60;;;2.90;;
66607;SDS011;53462;39.616;8.824;2023-11-21T10:25:24;15.77;;;3.60;;
66607;SDS011;53462;39.616;8.824;2023-11-21T10:27:55;11.93;;;3.60;;
66607;SDS011;53462;39.616;8.824;2023-11-21T10:30:32;13.25;;;3.95;;
66607;SDS011;53462;39.616;8.824;2023-11-21T10:33:02;15.27;;;4.00;;
66607;SDS011;53462;39.616;8.824;2023-11-21T10:38:19;11.32;;;2.33;;
66607;SDS011;53462;39.616;8.824;2023-11-21T10:40:50;14.68;;;1.77;;
66607;SDS011;53462;39.616;8.824;2023-11-21T10:43:17;9.25;;;1.90;;
66607;SDS011;53462;39.616;8.824;2023-11-21T10:45:43;7.15;;;1.73;;
66607;SDS011;53462;39.616;8.824;2023-11-21T10:48:10;8.73;;;1.98;;
66607;SDS011;53462;39.616;8.824;2023-11-21T10:50:43;7.78;;;1.42;;
66607;SDS011;53462;39.616;8.824;2023-11-21T10:53:11;7.93;;;1.50;;
66607;SDS011;53462;39.616;8.824;2023-11-21T10:55:38;11.00;;;1.63;;
66607;SDS011;53462;39.616;8.824;2023-11-21T10:58:04;8.50;;;2.15;;
66607;SDS011;53462;39.616;8.824;2023-11-21T11:00:32;14.85;;;2.40;;
66607;SDS011;53462;39.616;8.824;2023-11-21T11:02:58;9.05;;;1.80;;
66607;SDS011;53462;39.616;8.824;2023-11-21T11:05:26;11.85;;;2.17;;
66607;SDS011;53462;39.616;8.824;2023-11-21T11:08:04;13.23;;;1.70;;
66607;SDS011;53462;39.616;8.824;2023-11-21T11:10:31;12.73;;;2.45;;
66607;SDS011;53462;39.616;8.824;2023-11-21T11:12:58;14.18;;;2.50;;
66607;SDS011;53462;39.616;8.824;2023-11-21T11:15:25;10.20;;;2.08;;
66607;SDS011;53462;39.616;8.824;2023-11-21T11:17:52;9.98;;;2.03;;
66607;SDS011;53462;39.616;8.824;2023-11-21T11:20:27;14.43;;;2.70;;
66607;SDS011;53462;39.616;8.824;2023-11-21T11:25:35;10.35;;;1.90;;
66607;SDS011;53462;39.616;8.824;2023-11-21T11:33:56;11.02;;;1.42;;
66607;SDS011;53462;39.616;8.824;2023-11-21T11:36:37;11.50;;;1.77;;
66607;SDS011;53462;39.616;8.824;2023-11-21T11:39:28;8.68;;;1.70;;
66607;SDS011;53462;39.616;8.824;2023-11-21T11:41:56;13.75;;;2.47;;
66607;SDS011;53462;39.616;8.824;2023-11-21T11:44:47;9.77;;;1.67;;
66607;SDS011;53462;39.616;8.824;2023-11-21T11:47:16;13.63;;;1.65;;
66607;SDS011;53462;39.616;8.824;2023-11-21T11:55:03;10.73;;;1.60;;
66607;SDS011;53462;39.616;8.824;2023-11-21T11:57:30;8.65;;;1.60;;
66607;SDS011;53462;39.616;8.824;2023-11-21T12:02:41;6.50;;;1.25;;
66607;SDS011;53462;39.616;8.824;2023-11-21T12:05:10;10.07;;;1.73;;
66607;SDS011;53462;39.616;8.824;2023-11-21T12:07:45;5.72;;;1.33;;
66607;SDS011;53462;39.616;8.824;2023-11-21T12:10:16;9.88;;;1.38;;
66607;SDS011;53462;39.616;8.824;2023-11-21T12:12:44;10.15;;;1.40;;
66607;SDS011;53462;39.616;8.824;2023-11-21T12:15:11;5.97;;;1.30;;
66607;SDS011;53462;39.616;8.824;2023-11-21T12:17:38;8.52;;;1.52;;
66607;SDS011;53462;39.616;8.824;2023-11-21T12:20:05;6.63;;;1.40;;
66607;SDS011;53462;39.616;8.824;2023-11-21T12:22:41;6.15;;;1.35;;
66607;SDS011;53462;39.616;8.824;2023-11-21T12:25:14;11.57;;;1.48;;
66607;SDS011;53462;39.616;8.824;2023-11-21T12:27:47;12.48;;;1.50;;
66607;SDS011;53462;39.616;8.824;2023-11-21T12:30:18;8.95;;;1.30;;
66607;SDS011;53462;39.616;8.824;2023-11-21T12:32:50;9.23;;;1.40;;
66607;SDS011;53462;39.616;8.824;2023-11-21T12:35:17;8.48;;;1.55;;
66607;SDS011;53462;39.616;8.824;2023-11-21T12:37:47;7.38;;;1.35;;
66607;SDS011;53462;39.616;8.824;2023-11-21T12:40:14;11.00;;;1.65;;
66607;SDS011;53462;39.616;8.824;2023-11-21T12:42:41;8.73;;;1.77;;
66607;SDS011;53462;39.616;8.824;2023-11-21T12:47:39;9.43;;;1.45;;
66607;SDS011;53462;39.616;8.824;2023-11-21T12:50:06;8.45;;;1.30;;
66607;SDS011;53462;39.616;8.824;2023-11-21T12:52:42;11.53;;;2.00;;
66607;SDS011;53462;39.616;8.824;2023-11-21T12:55:17;12.65;;;1.67;;
66607;SDS011;53462;39.616;8.824;2023-11-21T12:57:47;7.53;;;1.40;;
66607;SDS011;53462;39.616;8.824;2023-11-21T13:00:20;9.27;;;1.45;;
66607;SDS011;53462;39.616;8.824;2023-11-21T13:02:54;7.22;;;1.50;;
66607;SDS011;53462;39.616;8.824;2023-11-21T13:05:29;10.07;;;1.70;;
66607;SDS011;53462;39.616;8.824;2023-11-21T13:08:19;6.75;;;1.15;;
66607;SDS011;53462;39.616;8.824;2023-11-21T13:10:52;10.93;;;1.40;;
66607;SDS011;53462;39.616;8.824;2023-11-21T13:13:23;11.13;;;1.80;;
66607;SDS011;53462;39.616;8.824;2023-11-21T13:15:51;4.45;;;1.20;;
66607;SDS011;53462;39.616;8.824;2023-11-21T13:18:21;10.23;;;1.42;;
66607;SDS011;53462;39.616;8.824;2023-11-21T13:20:49;9.10;;;1.60;;
66607;SDS011;53462;39.616;8.824;2023-11-21T13:23:15;8.18;;;1.65;;
66607;SDS011;53462;39.616;8.824;2023-11-21T13:25:42;7.57;;;1.45;;
66607;SDS011;53462;39.616;8.824;2023-11-21T13:28:11;9.25;;;1.48;;
66607;SDS011;53462;39.616;8.824;2023-11-21T13:30:38;10.07;;;1.45;;
66607;SDS011;53462;39.616;8.824;2023-11-21T13:33:07;14.68;;;1.45;;
66607;SDS011;53462;39.616;8.824;2023-11-21T13:35:34;10.48;;;1.35;;
66607;SDS011;53462;39.616;8.824;2023-11-21T13:38:12;9.60;;;1.52;;
66607;SDS011;53462;39.616;8.824;2023-11-21T13:40:49;9.70;;;2.55;;
66607;SDS011;53462;39.616;8.824;2023-11-21T13:43:19;7.65;;;1.65;;
66607;SDS011;53462;39.616;8.824;2023-11-21T13:45:51;7.40;;;2.00;;
66607;SDS011;53462;39.616;8.824;2023-11-21T13:48:27;5.47;;;1.10;;
66607;SDS011;53462;39.616;8.824;2023-11-21T13:51:14;6.72;;;1.25;;
66607;SDS011;53462;39.616;8.824;2023-11-21T13:53:44;9.55;;;1.70;;
66607;SDS011;53462;39.616;8.824;2023-11-21T13:56:13;4.57;;;1.23;;
66607;SDS011;53462;39.616;8.824;2023-11-21T13:58:46;8.50;;;1.30;;
66607;SDS011;53462;39.616;8.824;2023-11-21T14:01:18;3.78;;;1.00;;
66607;SDS011;53462;39.616;8.824;2023-11-21T14:04:11;5.53;;;1.05;;
66607;SDS011;53462;39.616;8.824;2023-11-21T14:06:48;4.93;;;0.82;;
66607;SDS011;53462;39.616;8.824;2023-11-21T14:09:20;4.50;;;0.90;;
66607;SDS011;53462;39.616;8.824;2023-11-21T14:11:51;4.97;;;1.10;;
66607;SDS011;53462;39.616;8.824;2023-11-21T14:14:21;5.07;;;1.45;;
66607;SDS011;53462;39.616;8.824;2023-11-21T14:16:53;4.13;;;1.20;;
66607;SDS011;53462;39.616;8.824;2023-11-21T14:19:21;8.65;;;1.40;;
66607;SDS011;53462;39.616;8.824;2023-11-21T14:21:55;4.50;;;1.40;;
66607;SDS011;53462;39.616;8.824;2023-11-21T14:24:22;5.07;;;1.00;;
66607;SDS011;53462;39.616;8.824;2023-11-21T14:26:49;4.20;;;1.30;;
66607;SDS011;53462;39.616;8.824;2023-11-21T14:29:17;6.65;;;1.10;;
66607;SDS011;53462;39.616;8.824;2023-11-21T14:31:48;5.15;;;1.35;;
66607;SDS011;53462;39.616;8.824;2023-11-21T14:34:16;5.22;;;1.45;;
66607;SDS011;53462;39.616;8.824;2023-11-21T14:36:43;8.18;;;1.00;;
66607;SDS011;53462;39.616;8.824;2023-11-21T14:39:09;6.90;;;1.38;;
66607;SDS011;53462;39.616;8.824;2023-11-21T14:41:48;2.95;;;0.88;;
66607;SDS011;53462;39.616;8.824;2023-11-21T14:44:15;6.13;;;1.02;;
66607;SDS011;53462;39.616;8.824;2023-11-21T14:46:41;9.88;;;2.15;;
66607;SDS011;53462;39.616;8.824;2023-11-21T14:49:13;3.95;;;1.17;;
66607;SDS011;53462;39.616;8.824;2023-11-21T14:51:48;7.93;;;1.52;;
66607;SDS011;53462;39.616;8.824;2023-11-21T14:54:39;6.22;;;1.17;;
66607;SDS011;53462;39.616;8.824;2023-11-21T14:57:09;5.68;;;0.98;;
66607;SDS011;53462;39.616;8.824;2023-11-21T14:59:45;4.75;;;0.93;;
66607;SDS011;53462;39.616;8.824;2023-11-21T15:02:17;8.38;;;1.42;;
66607;SDS011;53462;39.616;8.824;2023-11-21T15:04:48;5.05;;;1.30;;
66607;SDS011;53462;39.616;8.824;2023-11-21T15:07:18;3.97;;;1.15;;
66607;SDS011;53462;39.616;8.824;2023-11-21T15:09:43;5.30;;;1.20;;
66607;SDS011;53462;39.616;8.824;2023-11-21T15:12:10;4.05;;;1.20;;
66607;SDS011;53462;39.616;8.824;2023-11-21T15:14:43;9.05;;;1.40;;
66607;SDS011;53462;39.616;8.824;2023-11-21T15:17:17;8.90;;;1.40;;